createdAt,value
2022-10-19T00:12:52.791Z,5.25
2022-10-19T02:04:16.882Z,6.30
2022-10-19T02:09:29.302Z,5.90
2022-10-19T02:14:46.872Z,6.10
2022-10-19T02:30:55.576Z,5.95
2022-10-19T04:48:27.532Z,10.27
2022-10-19T05:10:08.097Z,18.08
2022-10-19T05:23:25.316Z,15.98
2022-10-19T05:26:03.096Z,14.75
2022-10-19T05:34:05.154Z,14.48
2022-10-19T05:52:46.706Z,15.88
2022-10-19T06:03:20.613Z,15.55
2022-10-19T06:08:32.618Z,16.92
2022-10-19T06:11:08.460Z,18.50
2022-10-19T06:30:45.166Z,15.35
2022-10-19T06:33:12.414Z,15.43
2022-10-19T06:35:42.364Z,15.73
2022-10-19T06:38:10.137Z,16.23
2022-10-19T06:40:37.135Z,13.95
2022-10-19T06:45:35.553Z,16.10
2022-10-19T06:48:06.631Z,12.93
2022-10-19T06:50:35.829Z,16.33
2022-10-19T06:53:02.963Z,14.02
2022-10-19T06:55:30.117Z,13.65
2022-10-19T06:57:59.701Z,14.90
2022-10-19T07:00:26.839Z,14.82
2022-10-19T07:02:53.978Z,15.25
2022-10-19T07:05:22.818Z,17.95
2022-10-19T07:07:49.955Z,17.38
2022-10-19T07:10:17.163Z,16.25
2022-10-19T07:12:44.109Z,19.92
2022-10-19T07:15:12.634Z,18.73
2022-10-19T07:17:41.686Z,19.40
2022-10-19T07:20:12.919Z,18.98
2022-10-19T07:22:40.028Z,20.67
2022-10-19T07:25:09.484Z,19.75
2022-10-19T07:27:37.873Z,18.58
2022-10-19T07:30:06.201Z,18.77
2022-10-19T07:32:33.233Z,16.73
2022-10-19T07:40:12.347Z,18.88
2022-10-19T07:42:39.635Z,18.67
2022-10-19T07:45:07.607Z,19.38
2022-10-19T07:47:35.076Z,22.23
2022-10-19T07:52:45.681Z,18.38
2022-10-19T07:55:12.897Z,21.27
2022-10-19T07:57:42.588Z,17.85
2022-10-19T08:00:12.530Z,19.55
2022-10-19T08:02:59.751Z,22.67
2022-10-19T08:05:27.183Z,17.55
2022-10-19T08:07:54.542Z,14.23
2022-10-19T08:10:21.502Z,21.52
2022-10-19T08:12:48.720Z,15.57
2022-10-19T08:15:16.033Z,13.60
2022-10-19T08:17:43.145Z,14.07
2022-10-19T08:20:10.885Z,18.58
2022-10-19T08:22:37.883Z,13.65
2022-10-19T08:27:32.161Z,14.25
2022-10-19T08:29:59.354Z,15.07
2022-10-19T08:32:26.832Z,15.88
2022-10-19T08:34:54.231Z,18.45
2022-10-19T08:37:40.066Z,20.80
2022-10-19T08:40:22.077Z,21.60
2022-10-19T08:42:56.208Z,19.95
2022-10-19T08:48:38.725Z,14.70
2022-10-19T08:51:09.560Z,14.13
2022-10-19T08:53:36.458Z,12.77
2022-10-19T08:56:56.082Z,11.13
2022-10-19T08:59:38.374Z,12.65
2022-10-19T09:02:20.572Z,14.20
2022-10-19T09:09:12.302Z,12.20
2022-10-19T09:11:47.340Z,14.10
2022-10-19T09:14:23.066Z,11.38
2022-10-19T09:16:50.746Z,11.50
2022-10-19T09:19:31.729Z,13.35
2022-10-19T09:22:05.586Z,10.98
2022-10-19T09:24:50.879Z,13.30
2022-10-19T09:27:30.151Z,15.02
2022-10-19T09:29:59.837Z,11.77
2022-10-19T09:32:35.474Z,12.25
2022-10-19T09:35:28.243Z,11.65
2022-10-19T09:37:56.730Z,11.25
2022-10-19T09:40:29.381Z,12.48
2022-10-19T09:42:58.520Z,10.63
2022-10-19T09:46:13.891Z,11.07
2022-10-19T09:48:52.403Z,14.02
2022-10-19T09:51:20.568Z,15.25
2022-10-19T09:53:55.458Z,16.05
2022-10-19T14:18:36.752Z,18.50
2022-10-19T14:23:55.517Z,13.85
2022-10-19T14:26:36.873Z,14.45
2022-10-19T14:34:34.986Z,20.90
2022-10-19T14:37:05.580Z,21.15
2022-10-19T14:42:16.128Z,18.13
2022-10-19T14:44:44.955Z,18.05
2022-10-19T14:47:33.520Z,19.25
2022-10-19T14:50:04.085Z,22.02
2022-10-19T14:52:39.253Z,20.30
2022-10-19T15:00:42.835Z,20.15
2022-10-19T15:09:37.321Z,21.15
2022-10-19T15:12:26.766Z,17.27
2022-10-19T15:23:47.383Z,24.42
2022-10-19T15:31:58.630Z,19.02
2022-10-19T15:34:32.520Z,18.40
2022-10-19T15:42:47.426Z,18.67
2022-10-19T15:45:41.507Z,17.88
2022-10-19T15:48:22.182Z,16.88
2022-10-19T15:53:36.777Z,11.68
2022-10-19T15:58:44.878Z,12.15
2022-10-19T16:01:19.469Z,14.07
2022-10-19T16:03:56.087Z,11.50
2022-10-19T16:06:27.694Z,11.48
2022-10-19T16:11:39.351Z,11.60
2022-10-19T16:16:51.080Z,15.32
2022-10-19T16:22:24.833Z,11.98
2022-10-19T16:27:37.300Z,10.48
2022-10-19T16:35:35.568Z,11.77
2022-10-19T16:40:46.860Z,10.32
2022-10-19T16:43:13.851Z,9.77
2022-10-19T16:48:26.704Z,10.35
2022-10-19T16:51:06.486Z,9.35
2022-10-19T16:53:35.522Z,7.65
2022-10-19T16:56:08.978Z,9.30
2022-10-19T16:58:38.398Z,10.65
2022-10-19T17:01:16.867Z,8.00
2022-10-19T17:03:46.531Z,8.30
2022-10-19T17:06:15.240Z,8.82
2022-10-19T17:09:14.685Z,7.03
2022-10-19T17:11:35.501Z,12.63
2022-10-19T17:16:46.840Z,7.60
2022-10-19T17:19:14.018Z,9.40
2022-10-19T17:21:42.743Z,9.90
2022-10-19T17:24:21.071Z,9.35
2022-10-19T17:26:50.312Z,8.73
2022-10-19T17:29:18.907Z,8.38
2022-10-19T17:31:46.699Z,9.93
